createdAt,value
2019-01-25T00:02:42.296Z,-3.30
2019-01-25T00:05:46.145Z,-3.40
2019-01-25T00:08:50.073Z,-3.43
2019-01-25T00:11:53.946Z,-3.31
2019-01-25T00:14:57.787Z,-3.35
2019-01-25T00:18:01.728Z,-3.40
2019-01-25T00:21:05.836Z,-3.39
2019-01-25T00:36:52.202Z,-3.32
2019-01-25T00:39:56.058Z,-3.29
2019-01-25T00:42:59.960Z,-3.28
2019-01-25T00:46:03.884Z,-3.23
2019-01-25T00:49:07.730Z,-3.18
2019-01-25T00:52:11.735Z,-3.23
2019-01-25T00:55:15.730Z,-3.19
2019-01-25T00:58:19.592Z,-3.15
2019-01-25T01:01:23.593Z,-3.19
2019-01-25T01:04:27.586Z,-3.21
2019-01-25T01:07:31.521Z,-3.16
2019-01-25T01:10:35.475Z,-3.07
2019-01-25T01:13:39.445Z,-3.03
2019-01-25T01:16:43.374Z,-3.11
2019-01-25T01:19:47.216Z,-3.15
2019-01-25T01:22:51.397Z,-3.14
2019-01-25T01:25:55.327Z,-3.11
2019-01-25T01:28:59.170Z,-3.11
2019-01-25T01:32:03.154Z,-3.14
2019-01-25T01:35:07.235Z,-3.00
2019-01-25T01:38:11.180Z,-3.10
2019-01-25T01:41:15.062Z,-3.15
2019-01-25T01:44:18.966Z,-3.24
2019-01-25T01:47:22.948Z,-3.23
2019-01-25T01:50:26.920Z,-3.25
2019-01-25T01:53:30.769Z,-3.20
2019-01-25T01:56:34.653Z,-3.13
2019-01-25T01:59:38.499Z,-3.03
2019-01-25T02:02:42.519Z,-3.14
2019-01-25T02:05:46.435Z,-3.15
2019-01-25T02:08:50.278Z,-3.16
2019-01-25T02:11:54.109Z,-3.16
2019-01-25T02:14:58.034Z,-3.12
2019-01-25T02:18:01.884Z,-3.12
2019-01-25T02:21:06.871Z,-3.10
2019-01-25T02:24:10.718Z,-3.09
2019-01-25T02:27:14.572Z,-3.11
2019-01-25T02:30:20.706Z,-3.12
2019-01-25T02:33:24.641Z,-3.08
2019-01-25T02:36:28.478Z,-3.03
2019-01-25T02:39:32.336Z,-3.04
2019-01-25T02:42:36.250Z,-3.05
2019-01-25T02:45:40.094Z,-3.06
2019-01-25T02:48:43.931Z,-3.05
2019-01-25T02:51:47.766Z,-3.05
2019-01-25T02:54:51.682Z,-3.03
2019-01-25T02:57:55.538Z,-3.04
2019-01-25T03:00:59.421Z,-3.09
2019-01-25T03:04:03.351Z,-3.11
2019-01-25T03:07:07.257Z,-3.10
2019-01-25T03:10:12.460Z,-3.14
2019-01-25T03:13:16.298Z,-3.12
2019-01-25T03:16:20.236Z,-3.10
2019-01-25T03:19:24.149Z,-3.08
2019-01-25T03:22:28.079Z,-3.15
2019-01-25T03:25:31.997Z,-3.13
2019-01-25T03:28:36.001Z,-3.12
2019-01-25T03:31:39.886Z,-3.09
2019-01-25T03:34:43.737Z,-3.10
2019-01-25T03:37:47.743Z,-3.11
2019-01-25T03:40:55.137Z,-3.08
2019-01-25T03:43:57.270Z,-3.13
2019-01-25T03:47:01.090Z,-3.15
2019-01-25T03:50:07.434Z,-3.13
2019-01-25T03:53:11.375Z,-3.15
2019-01-25T03:56:15.178Z,-3.14
2019-01-25T03:59:18.974Z,-3.10
2019-01-25T04:02:22.895Z,-3.11
2019-01-25T04:05:26.853Z,-3.10
2019-01-25T04:08:30.812Z,-3.06
2019-01-25T04:11:34.682Z,-3.06
2019-01-25T04:14:38.609Z,-3.06
2019-01-25T04:17:42.487Z,-3.05
2019-01-25T04:20:46.393Z,-3.08
2019-01-25T04:23:50.257Z,-3.05
2019-01-25T04:26:54.056Z,-3.06
2019-01-25T04:29:57.919Z,-3.07
2019-01-25T04:33:01.774Z,-3.10
2019-01-25T04:36:05.875Z,-3.09
2019-01-25T04:39:10.264Z,-3.11
2019-01-25T04:42:14.139Z,-3.17
2019-01-25T04:45:19.242Z,-3.16
2019-01-25T04:48:23.117Z,-3.19
2019-01-25T04:51:27.020Z,-3.21
2019-01-25T04:54:30.968Z,-3.18
2019-01-25T04:57:34.818Z,-3.24
2019-01-25T05:00:38.712Z,-3.24
2019-01-25T05:03:42.564Z,-3.19
2019-01-25T05:06:46.400Z,-3.12
2019-01-25T05:09:50.197Z,-3.05
2019-01-25T05:12:54.505Z,-3.05
2019-01-25T05:15:58.359Z,-3.08
2019-01-25T05:19:02.221Z,-3.09
2019-01-25T05:22:06.202Z,-3.25
2019-01-25T05:25:10.171Z,-3.24
2019-01-25T05:28:18.693Z,-3.19
2019-01-25T05:31:26.310Z,-3.17
2019-01-25T05:34:30.129Z,-3.15
2019-01-25T05:37:33.961Z,-3.12
2019-01-25T05:40:37.839Z,-3.09
2019-01-25T05:43:42.954Z,-3.07
2019-01-25T05:46:46.761Z,-3.05
2019-01-25T05:49:50.600Z,-3.07
2019-01-25T05:52:54.601Z,-3.07
2019-01-25T05:55:58.552Z,-3.05
2019-01-25T05:59:02.407Z,-3.05
2019-01-25T06:02:06.398Z,-3.07
2019-01-25T06:05:10.437Z,-3.11
2019-01-25T06:08:32.227Z,-3.17
2019-01-25T06:11:37.480Z,-3.20
2019-01-25T06:14:41.333Z,-3.18
2019-01-25T06:17:45.183Z,-3.13
2019-01-25T06:20:52.478Z,-3.12
2019-01-25T06:23:56.307Z,-3.09
2019-01-25T06:27:00.315Z,-3.08
2019-01-25T06:30:07.080Z,-3.09
2019-01-25T06:33:10.966Z,-3.07
2019-01-25T06:36:14.866Z,-3.06
2019-01-25T06:39:18.785Z,-3.07
2019-01-25T06:42:22.709Z,-3.04
2019-01-25T06:45:26.531Z,-3.03
2019-01-25T06:48:30.450Z,-3.02
2019-01-25T06:51:34.420Z,-3.02
2019-01-25T06:54:38.264Z,-3.01
2019-01-25T06:57:54.725Z,-3.02
2019-01-25T07:01:06.624Z,-3.00
2019-01-25T07:04:10.600Z,-3.02
2019-01-25T07:07:39.567Z,-3.00
2019-01-25T07:10:43.479Z,-3.00
2019-01-25T07:13:47.302Z,-3.02
2019-01-25T07:16:51.159Z,-3.01
2019-01-25T07:19:54.990Z,-2.99
2019-01-25T07:22:58.852Z,-2.98
2019-01-25T07:26:02.842Z,-2.96
2019-01-25T07:29:06.764Z,-2.94
2019-01-25T07:32:10.779Z,-2.96
2019-01-25T07:35:14.717Z,-2.94
2019-01-25T07:38:18.765Z,-2.93
2019-01-25T07:41:22.602Z,-2.94
2019-01-25T07:44:26.658Z,-2.93
2019-01-25T07:47:30.578Z,-2.94
2019-01-25T07:50:34.465Z,-2.92
2019-01-25T07:53:38.626Z,-2.91
2019-01-25T07:56:42.448Z,-2.93
2019-01-25T07:59:46.360Z,-2.92
2019-01-25T08:02:50.285Z,-2.93
2019-01-25T08:05:54.172Z,-2.94
2019-01-25T08:08:58.012Z,-2.95
2019-01-25T08:12:07.332Z,-2.92
2019-01-25T08:15:10.660Z,-2.90
2019-01-25T08:18:14.597Z,-2.94
2019-01-25T08:21:18.497Z,-2.91
2019-01-25T08:24:22.360Z,-2.88
2019-01-25T08:27:26.169Z,-2.90
2019-01-25T08:30:30.158Z,-2.84
2019-01-25T08:33:34.021Z,-2.81
2019-01-25T08:36:37.940Z,-2.80
2019-01-25T08:39:41.864Z,-2.76
2019-01-25T08:42:45.832Z,-2.77
2019-01-25T08:45:49.871Z,-2.75
2019-01-25T08:48:54.091Z,-2.71
2019-01-25T08:51:57.965Z,-2.76
2019-01-25T08:55:01.798Z,-2.75
2019-01-25T08:58:05.782Z,-2.72
2019-01-25T09:01:09.604Z,-2.65
2019-01-25T09:04:13.436Z,-2.65
2019-01-25T09:07:17.334Z,-2.64
2019-01-25T09:10:21.309Z,-2.63
2019-01-25T09:13:25.159Z,-2.59
2019-01-25T09:16:29.039Z,-2.55
2019-01-25T09:19:32.929Z,-2.52
2019-01-25T09:22:36.815Z,-2.49
2019-01-25T09:25:40.654Z,-2.47
2019-01-25T09:28:44.527Z,-2.38
2019-01-25T09:31:48.405Z,-2.32
2019-01-25T09:34:52.203Z,-2.32
2019-01-25T09:37:56.100Z,-2.30
2019-01-25T09:40:59.900Z,-2.31
2019-01-25T09:44:03.896Z,-2.29
2019-01-25T09:47:07.878Z,-2.27
2019-01-25T09:50:14.019Z,-2.15
2019-01-25T09:53:17.822Z,-2.16
2019-01-25T09:56:21.620Z,-2.10
2019-01-25T09:59:25.422Z,-2.08
2019-01-25T10:02:29.245Z,-1.99
2019-01-25T10:05:33.066Z,-1.97
2019-01-25T10:08:36.873Z,-1.93
2019-01-25T10:11:40.677Z,-1.90
2019-01-25T10:14:44.539Z,-1.91
2019-01-25T10:17:48.464Z,-1.93
2019-01-25T10:20:52.281Z,-1.93
2019-01-25T10:23:56.091Z,-1.91
2019-01-25T10:26:59.955Z,-1.89
2019-01-25T10:30:04.645Z,-1.91
2019-01-25T10:33:08.466Z,-1.87
2019-01-25T10:36:12.426Z,-1.79
2019-01-25T10:39:16.242Z,-1.83
2019-01-25T10:42:20.045Z,-1.75
2019-01-25T10:45:26.797Z,-1.81
2019-01-25T10:48:30.595Z,-1.83
2019-01-25T10:51:34.567Z,-1.82
2019-01-25T10:54:38.375Z,-1.77
2019-01-25T10:57:42.334Z,-1.71
2019-01-25T11:00:46.212Z,-1.73
2019-01-25T11:03:50.048Z,-1.70
2019-01-25T11:06:53.849Z,-1.65
2019-01-25T11:09:57.689Z,-1.61
2019-01-25T11:13:02.064Z,-1.67
2019-01-25T11:16:06.348Z,-1.71
2019-01-25T11:19:10.277Z,-1.82
2019-01-25T11:22:14.085Z,-1.67
2019-01-25T11:25:28.874Z,-1.61
2019-01-25T11:28:32.667Z,-1.58
2019-01-25T11:31:36.471Z,-1.58
2019-01-25T11:34:40.440Z,-1.60
2019-01-25T11:37:44.379Z,-1.57
2019-01-25T11:40:48.359Z,-1.69
2019-01-25T11:43:52.189Z,-1.66
2019-01-25T11:46:56.134Z,-1.69
2019-01-25T11:50:00.010Z,-1.66
2019-01-25T11:53:04.017Z,-1.61
2019-01-25T11:56:07.989Z,-1.61
2019-01-25T11:59:11.921Z,-1.46
2019-01-25T12:02:20.880Z,-1.51
2019-01-25T12:05:22.673Z,-1.45
2019-01-25T12:08:26.579Z,-1.46
2019-01-25T12:11:30.470Z,-1.38
2019-01-25T12:14:34.276Z,-1.44
2019-01-25T12:17:38.099Z,-1.43
2019-01-25T12:20:41.918Z,-1.37
2019-01-25T12:23:45.790Z,-1.51
2019-01-25T12:26:49.594Z,-1.59
2019-01-25T12:29:53.417Z,-1.44
2019-01-25T12:32:57.380Z,-1.47
2019-01-25T12:36:01.196Z,-1.55
2019-01-25T12:39:08.343Z,-1.51
2019-01-25T12:42:12.225Z,-1.49
2019-01-25T12:45:18.832Z,-1.60
2019-01-25T12:48:22.658Z,-1.52
2019-01-25T12:51:36.004Z,-1.58
2019-01-25T12:54:39.837Z,-1.57
2019-01-25T12:57:43.636Z,-1.57
2019-01-25T13:00:47.567Z,-1.52
2019-01-25T13:03:51.463Z,-1.41
2019-01-25T13:06:55.391Z,-1.51
2019-01-25T13:09:59.196Z,-1.28
2019-01-25T13:13:03.179Z,-1.44
2019-01-25T13:16:07.118Z,-1.45
2019-01-25T13:19:11.101Z,-1.31
2019-01-25T13:22:14.913Z,-1.18
2019-01-25T13:25:18.819Z,-1.15
2019-01-25T13:28:22.813Z,-1.39
2019-01-25T13:31:26.616Z,-1.50
2019-01-25T13:34:30.471Z,-1.46
2019-01-25T13:37:34.335Z,-1.45
2019-01-25T13:40:38.214Z,-1.49
2019-01-25T13:43:42.102Z,-1.40
2019-01-25T13:46:45.897Z,-1.38
2019-01-25T13:49:49.731Z,-1.50
2019-01-25T13:52:53.669Z,-1.55
2019-01-25T13:55:57.574Z,-1.60
2019-01-25T13:59:01.386Z,-1.60
2019-01-25T14:02:05.359Z,-1.58
2019-01-25T14:05:09.475Z,-1.57
2019-01-25T14:08:13.286Z,-1.55
2019-01-25T14:11:17.188Z,-1.57
2019-01-25T14:14:21.032Z,-1.47
2019-01-25T14:17:24.845Z,-1.45
2019-01-25T14:20:30.514Z,-1.43
2019-01-25T14:23:34.327Z,-1.52
2019-01-25T14:26:38.291Z,-1.44
2019-01-25T14:29:42.126Z,-1.40
2019-01-25T14:32:45.933Z,-1.42
2019-01-25T14:35:49.770Z,-1.45
2019-01-25T14:38:53.593Z,-1.46
2019-01-25T14:41:57.399Z,-1.45
2019-01-25T14:45:01.218Z,-1.46
2019-01-25T14:48:05.693Z,-1.50
2019-01-25T14:51:09.568Z,-1.50
2019-01-25T14:54:13.377Z,-1.50
2019-01-25T14:57:17.204Z,-1.53
2019-01-25T15:00:21.078Z,-1.51
2019-01-25T15:03:24.908Z,-1.50
2019-01-25T15:06:28.788Z,-1.56
2019-01-25T15:09:32.612Z,-1.71
2019-01-25T15:12:36.586Z,-1.79
2019-01-25T15:15:40.466Z,-1.85
2019-01-25T15:18:44.279Z,-1.80
2019-01-25T15:21:48.086Z,-1.81
2019-01-25T15:24:52.050Z,-1.78
2019-01-25T15:27:55.988Z,-1.81
2019-01-25T15:30:59.871Z,-1.90
2019-01-25T15:34:03.796Z,-1.98
2019-01-25T15:37:07.704Z,-2.04
2019-01-25T15:40:12.399Z,-1.99
2019-01-25T15:43:16.203Z,-1.99
2019-01-25T15:46:20.270Z,-1.94
2019-01-25T15:49:24.091Z,-2.07
2019-01-25T15:52:28.025Z,-2.11
2019-01-25T15:55:32.191Z,-2.06
2019-01-25T15:58:36.098Z,-2.02
2019-01-25T16:01:39.926Z,-2.07
2019-01-25T16:04:43.731Z,-2.06
2019-01-25T16:07:47.881Z,-2.07
2019-01-25T16:10:51.798Z,-2.09
2019-01-25T16:13:55.613Z,-2.04
2019-01-25T16:16:59.517Z,-2.06
2019-01-25T16:20:03.504Z,-2.16
2019-01-25T16:23:07.465Z,-2.16
2019-01-25T16:26:11.273Z,-2.16
2019-01-25T16:29:15.102Z,-2.09
2019-01-25T16:32:19.021Z,-2.09
2019-01-25T16:35:22.916Z,-2.00
2019-01-25T16:38:27.656Z,-2.03
2019-01-25T16:41:31.498Z,-2.07
2019-01-25T16:44:36.391Z,-2.11
2019-01-25T16:47:40.205Z,-2.02
2019-01-25T16:50:44.096Z,-2.04
2019-01-25T16:53:47.977Z,-2.01
2019-01-25T16:56:51.789Z,-2.11
2019-01-25T16:59:55.668Z,-2.10
2019-01-25T17:02:59.490Z,-2.08
2019-01-25T17:06:03.436Z,-2.10
2019-01-25T17:09:08.358Z,-2.08
2019-01-25T17:12:12.181Z,-2.15
2019-01-25T17:15:16.378Z,-2.16
2019-01-25T17:18:20.332Z,-2.16
2019-01-25T17:21:24.234Z,-2.26
2019-01-25T17:24:28.087Z,-2.31
2019-01-25T17:27:31.910Z,-2.36
2019-01-25T17:30:36.488Z,-2.42
2019-01-25T17:33:40.405Z,-2.37
2019-01-25T17:36:44.301Z,-2.32
2019-01-25T17:39:48.188Z,-2.36
2019-01-25T17:42:52.172Z,-2.39
2019-01-25T17:45:56.047Z,-2.42
2019-01-25T17:48:59.941Z,-2.47
2019-01-25T17:52:03.850Z,-2.48
2019-01-25T17:55:08.769Z,-2.44
2019-01-25T17:58:12.678Z,-2.48
2019-01-25T18:01:16.501Z,-2.50
2019-01-25T18:04:20.319Z,-2.53
2019-01-25T18:07:24.208Z,-2.60
2019-01-25T18:10:28.172Z,-2.60
2019-01-25T18:13:32.048Z,-2.67
2019-01-25T18:16:36.011Z,-2.68
2019-01-25T18:19:39.828Z,-2.72
2019-01-25T18:22:43.781Z,-2.76
2019-01-25T18:26:00.822Z,-2.72
2019-01-25T18:29:14.237Z,-2.76
2019-01-25T18:32:18.136Z,-2.74
2019-01-25T18:35:21.964Z,-2.74
2019-01-25T18:38:25.793Z,-2.75
2019-01-25T18:41:29.627Z,-2.80
2019-01-25T18:44:33.460Z,-2.83
2019-01-25T18:47:37.699Z,-2.79
2019-01-25T18:50:41.596Z,-2.79
2019-01-25T18:53:45.982Z,-2.80
2019-01-25T18:56:51.181Z,-2.84
2019-01-25T18:59:54.966Z,-2.90
2019-01-25T19:02:58.832Z,-2.85
2019-01-25T19:06:02.836Z,-2.86
2019-01-25T19:09:09.025Z,-2.89
2019-01-25T19:12:12.858Z,-2.94
2019-01-25T19:15:19.444Z,-2.91
2019-01-25T19:18:23.329Z,-2.92
2019-01-25T19:21:27.162Z,-2.98
2019-01-25T19:24:30.964Z,-2.96
2019-01-25T19:27:34.845Z,-2.98
2019-01-25T19:30:41.215Z,-2.97
2019-01-25T19:33:45.034Z,-3.00
2019-01-25T19:36:48.904Z,-2.99
2019-01-25T19:39:52.798Z,-3.00
2019-01-25T19:42:56.765Z,-2.99
2019-01-25T19:46:00.567Z,-3.03
2019-01-25T19:49:04.540Z,-3.03
2019-01-25T19:52:08.565Z,-3.02
2019-01-25T19:55:15.373Z,-3.04
2019-01-25T19:58:20.751Z,-3.02
2019-01-25T20:01:24.746Z,-2.95
2019-01-25T20:04:28.657Z,-2.96
2019-01-25T20:07:32.475Z,-2.94
2019-01-25T20:10:36.432Z,-2.90
2019-01-25T20:13:40.344Z,-2.91
2019-01-25T20:16:44.236Z,-2.93
2019-01-25T20:19:48.036Z,-2.89
2019-01-25T20:22:51.885Z,-2.93
2019-01-25T20:25:55.697Z,-2.94
2019-01-25T20:28:59.522Z,-2.96
2019-01-25T20:32:03.560Z,-2.92
2019-01-25T20:35:09.610Z,-2.93
2019-01-25T20:38:13.553Z,-2.88
2019-01-25T20:41:17.474Z,-2.87
2019-01-25T20:44:21.353Z,-2.85
2019-01-25T20:47:25.319Z,-2.87
2019-01-25T20:50:30.369Z,-2.85
2019-01-25T20:53:34.253Z,-2.79
2019-01-25T20:56:38.064Z,-2.83
2019-01-25T20:59:41.888Z,-2.81
2019-01-25T21:02:45.783Z,-2.88
2019-01-25T21:05:49.666Z,-2.91
2019-01-25T21:08:53.598Z,-2.87
2019-01-25T21:11:57.475Z,-2.84
2019-01-25T21:15:01.285Z,-2.80
2019-01-25T21:18:06.322Z,-2.84
2019-01-25T21:21:10.208Z,-2.77
2019-01-25T21:24:14.124Z,-2.75
2019-01-25T21:27:17.949Z,-2.74
2019-01-25T21:30:24.394Z,-2.71
2019-01-25T21:33:28.376Z,-2.74
2019-01-25T21:36:32.325Z,-2.70
2019-01-25T21:39:36.149Z,-2.68
2019-01-25T21:42:39.946Z,-2.68
2019-01-25T21:45:43.879Z,-2.65
2019-01-25T21:48:47.706Z,-2.63
2019-01-25T21:51:51.600Z,-2.64
2019-01-25T21:54:55.439Z,-2.59
2019-01-25T21:58:05.508Z,-2.57
2019-01-25T22:01:05.056Z,-2.56
2019-01-25T22:04:08.877Z,-2.56
2019-01-25T22:07:12.711Z,-2.52
2019-01-25T22:10:22.298Z,-2.51
2019-01-25T22:13:26.096Z,-2.51
2019-01-25T22:16:30.081Z,-2.50
2019-01-25T22:19:33.993Z,-2.43
2019-01-25T22:22:37.899Z,-2.44
2019-01-25T22:25:41.940Z,-2.41
2019-01-25T22:28:45.765Z,-2.39
2019-01-25T22:31:49.721Z,-2.34
2019-01-25T22:34:53.516Z,-2.37
2019-01-25T22:37:57.487Z,-2.31
2019-01-25T22:41:01.374Z,-2.28
2019-01-25T22:44:05.262Z,-2.26
2019-01-25T22:47:09.154Z,-2.26
2019-01-25T22:50:16.415Z,-2.26
2019-01-25T22:53:20.385Z,-2.23
2019-01-25T22:56:24.240Z,-2.15
2019-01-25T22:59:28.101Z,-2.13
2019-01-25T23:02:31.991Z,-2.11
2019-01-25T23:06:11.694Z,-2.09
2019-01-25T23:09:30.588Z,-2.06
2019-01-25T23:12:35.862Z,-2.05
2019-01-25T23:15:39.875Z,-2.02
2019-01-25T23:18:43.685Z,-2.01
2019-01-25T23:21:47.594Z,-1.94
2019-01-25T23:24:51.410Z,-1.94
2019-01-25T23:27:55.233Z,-1.90
2019-01-25T23:30:59.199Z,-1.90
2019-01-25T23:34:03.103Z,-1.91
2019-01-25T23:37:06.955Z,-1.86
2019-01-25T23:40:13.238Z,-1.80
2019-01-25T23:43:17.158Z,-1.83
2019-01-25T23:46:20.958Z,-1.81
2019-01-25T23:49:24.793Z,-1.77
2019-01-25T23:52:28.619Z,-1.78
2019-01-25T23:55:32.588Z,-1.73
2019-01-25T23:58:36.481Z,-1.68
